createdAt,value
2023-11-16T00:00:37.305Z,1.30
2023-11-16T00:03:06.998Z,1.40
2023-11-16T00:05:36.912Z,1.40
2023-11-16T00:08:08.113Z,1.37
2023-11-16T00:10:38.584Z,1.50
2023-11-16T00:13:08.273Z,1.50
2023-11-16T00:15:36.903Z,1.50
2023-11-16T00:18:05.377Z,1.63
2023-11-16T00:20:33.715Z,1.20
2023-11-16T00:23:00.623Z,1.63
2023-11-16T00:25:27.624Z,1.40
2023-11-16T00:27:54.576Z,1.40
2023-11-16T00:30:21.743Z,1.40
2023-11-16T00:32:49.393Z,1.40
2023-11-16T00:35:16.733Z,1.60
2023-11-16T00:37:44.522Z,1.80
2023-11-16T00:40:11.834Z,1.90
2023-11-16T00:42:38.838Z,1.57
2023-11-16T00:45:07.549Z,1.53
2023-11-16T00:47:34.566Z,2.33
2023-11-16T00:50:01.620Z,1.53
2023-11-16T00:52:29.155Z,1.30
2023-11-16T00:54:56.711Z,1.37
2023-11-16T00:57:23.821Z,1.20
2023-11-16T00:59:50.956Z,1.40
2023-11-16T01:02:18.795Z,1.30
2023-11-16T01:04:46.062Z,1.60
2023-11-16T01:07:12.982Z,1.70
2023-11-16T01:09:40.244Z,1.53
2023-11-16T01:12:15.919Z,1.80
2023-11-16T01:14:44.187Z,1.73
2023-11-16T01:17:19.936Z,1.50
2023-11-16T01:19:48.702Z,1.77
2023-11-16T01:22:17.851Z,1.20
2023-11-16T01:24:48.254Z,1.60
2023-11-16T01:27:17.501Z,1.40
2023-11-16T01:29:45.460Z,1.67
2023-11-16T01:32:13.836Z,1.50
2023-11-16T01:34:43.050Z,1.70
2023-11-16T01:37:10.758Z,1.50
2023-11-16T01:39:40.507Z,1.47
2023-11-16T01:42:09.285Z,1.60
2023-11-16T01:44:36.811Z,1.60
2023-11-16T01:47:07.240Z,1.43
2023-11-16T01:49:34.216Z,1.50
2023-11-16T01:52:01.120Z,1.47
2023-11-16T01:54:28.108Z,1.80
2023-11-16T01:56:55.299Z,1.60
2023-11-16T01:59:22.601Z,1.70
2023-11-16T02:01:50.458Z,1.50
2023-11-16T02:04:17.767Z,1.20
2023-11-16T02:06:44.870Z,1.60
2023-11-16T02:09:12.861Z,1.70
2023-11-16T02:11:39.758Z,1.63
2023-11-16T02:14:06.673Z,1.77
2023-11-16T02:16:34.068Z,1.70
2023-11-16T02:19:21.379Z,1.57
2023-11-16T02:21:48.939Z,1.40
2023-11-16T02:24:15.883Z,1.60
2023-11-16T02:26:43.580Z,1.60
2023-11-16T02:29:11.288Z,1.70
2023-11-16T02:31:38.972Z,1.60
2023-11-16T02:34:07.308Z,1.80
2023-11-16T02:36:34.294Z,1.50
2023-11-16T02:39:02.562Z,1.77
2023-11-16T02:41:30.471Z,1.63
2023-11-16T02:43:57.367Z,1.53
2023-11-16T02:46:24.374Z,1.40
2023-11-16T02:48:51.261Z,1.53
2023-11-16T02:51:18.206Z,1.70
2023-11-16T02:53:45.051Z,2.03
2023-11-16T02:56:14.853Z,1.53
2023-11-16T02:58:45.153Z,1.60
2023-11-16T03:01:14.345Z,1.50
2023-11-16T03:03:41.885Z,1.60
2023-11-16T03:06:10.219Z,1.70
2023-11-16T03:08:37.282Z,1.53
2023-11-16T03:11:04.731Z,1.70
2023-11-16T03:13:31.616Z,1.60
2023-11-16T03:15:58.704Z,1.73
2023-11-16T03:18:27.109Z,1.50
2023-11-16T03:20:54.262Z,1.80
2023-11-16T03:23:21.029Z,1.67
2023-11-16T03:25:48.369Z,1.70
2023-11-16T03:28:15.290Z,1.90
2023-11-16T03:30:42.195Z,1.70
2023-11-16T03:33:13.569Z,1.70
2023-11-16T03:35:40.668Z,1.63
2023-11-16T03:38:07.381Z,1.57
2023-11-16T03:40:34.312Z,1.43
2023-11-16T03:43:01.133Z,1.40
2023-11-16T03:45:28.190Z,1.60
2023-11-16T03:47:55.107Z,1.73
2023-11-16T03:50:22.300Z,1.70
2023-11-16T03:52:49.144Z,1.50
2023-11-16T03:55:15.948Z,1.40
2023-11-16T03:57:42.857Z,1.90
2023-11-16T04:00:10.464Z,1.70
2023-11-16T04:02:37.662Z,1.70
2023-11-16T04:05:10.316Z,1.80
2023-11-16T04:07:37.110Z,2.13
2023-11-16T04:10:05.538Z,2.80
2023-11-16T04:12:32.605Z,2.10
2023-11-16T04:14:59.512Z,1.90
2023-11-16T04:17:28.030Z,1.90
2023-11-16T04:19:55.148Z,1.70
2023-11-16T04:22:23.381Z,1.63
2023-11-16T04:24:52.958Z,1.83
2023-11-16T04:27:21.840Z,1.70
2023-11-16T04:29:48.944Z,1.90
2023-11-16T04:32:15.882Z,1.80
2023-11-16T04:34:43.482Z,1.97
2023-11-16T04:37:11.869Z,1.63
2023-11-16T04:39:38.920Z,1.60
2023-11-16T04:42:06.029Z,1.83
2023-11-16T04:44:35.594Z,1.60
2023-11-16T04:47:03.385Z,1.67
2023-11-16T04:49:30.176Z,1.53
2023-11-16T04:51:58.677Z,1.60
2023-11-16T04:54:27.889Z,1.60
2023-11-16T04:56:54.838Z,2.03
2023-11-16T04:59:21.731Z,1.50
2023-11-16T05:01:48.541Z,1.60
2023-11-16T05:04:15.495Z,1.60
2023-11-16T05:06:42.617Z,1.37
2023-11-16T05:09:09.779Z,1.37
2023-11-16T05:11:36.892Z,1.50
2023-11-16T05:14:05.230Z,1.80
2023-11-16T05:16:32.052Z,1.50
2023-11-16T05:18:59.036Z,1.50
2023-11-16T05:21:26.294Z,1.63
2023-11-16T05:23:53.172Z,1.57
2023-11-16T05:26:20.038Z,1.27
2023-11-16T05:28:46.763Z,1.47
2023-11-16T05:31:13.679Z,1.67
2023-11-16T05:33:40.518Z,1.90
2023-11-16T05:36:07.953Z,1.40
2023-11-16T05:38:34.810Z,1.57
2023-11-16T05:41:01.556Z,1.60
2023-11-16T05:43:28.378Z,1.63
2023-11-16T05:45:55.393Z,1.90
2023-11-16T05:48:22.196Z,1.97
2023-11-16T05:50:49.315Z,1.73
2023-11-16T05:53:16.780Z,1.50
2023-11-16T05:55:44.067Z,3.60
2023-11-16T05:58:11.134Z,3.73
2023-11-16T06:00:38.845Z,2.43
2023-11-16T06:03:07.364Z,1.90
2023-11-16T06:05:41.187Z,1.73
2023-11-16T06:08:08.179Z,1.77
2023-11-16T06:10:35.277Z,1.93
2023-11-16T06:13:02.150Z,1.80
2023-11-16T06:15:32.339Z,1.70
2023-11-16T06:18:02.712Z,1.60
2023-11-16T06:20:32.884Z,1.60
2023-11-16T06:22:59.629Z,1.20
2023-11-16T06:25:26.488Z,1.30
2023-11-16T06:27:53.628Z,1.50
2023-11-16T06:30:20.658Z,1.90
2023-11-16T06:32:48.800Z,1.80
2023-11-16T06:35:16.258Z,1.60
2023-11-16T06:37:44.718Z,1.50
2023-11-16T06:40:12.986Z,1.63
2023-11-16T06:42:41.477Z,1.80
2023-11-16T06:45:09.158Z,1.87
2023-11-16T06:47:37.099Z,1.60
2023-11-16T06:50:05.295Z,1.60
2023-11-16T06:52:32.581Z,1.43
2023-11-16T06:55:00.379Z,1.77
2023-11-16T06:57:30.266Z,1.50
2023-11-16T06:59:59.081Z,1.87
2023-11-16T07:02:26.012Z,1.50
2023-11-16T07:04:52.900Z,1.50
2023-11-16T07:07:20.090Z,1.80
2023-11-16T07:09:48.038Z,2.97
2023-11-16T07:12:16.747Z,4.63
2023-11-16T07:14:51.548Z,7.17
2023-11-16T07:17:21.294Z,4.97
2023-11-16T07:19:50.908Z,7.50
2023-11-16T07:22:19.843Z,6.90
2023-11-16T07:24:48.980Z,4.67
2023-11-16T07:27:16.193Z,6.00
2023-11-16T07:29:46.529Z,2.27
2023-11-16T07:32:14.583Z,2.20
2023-11-16T07:34:43.173Z,3.23
2023-11-16T07:37:13.178Z,2.50
2023-11-16T07:39:40.226Z,2.53
2023-11-16T07:42:08.714Z,2.70
2023-11-16T07:44:35.759Z,4.53
2023-11-16T07:47:02.703Z,5.37
2023-11-16T07:49:29.598Z,3.13
2023-11-16T07:51:56.953Z,3.10
2023-11-16T07:54:24.093Z,3.73
2023-11-16T07:56:56.701Z,7.17
2023-11-16T07:59:32.664Z,17.70
2023-11-16T08:02:02.034Z,14.33
2023-11-16T08:04:30.790Z,6.53
2023-11-16T08:06:59.621Z,4.70
2023-11-16T08:09:31.018Z,4.20
2023-11-16T08:12:00.591Z,3.10
2023-11-16T08:14:27.622Z,3.03
2023-11-16T08:17:00.475Z,3.00
2023-11-16T08:19:28.513Z,5.70
2023-11-16T08:21:58.320Z,5.20
2023-11-16T08:24:29.563Z,4.00
2023-11-16T08:26:59.937Z,3.17
2023-11-16T08:29:27.020Z,3.77
2023-11-16T08:31:58.312Z,2.60
2023-11-16T08:34:27.025Z,3.20
2023-11-16T08:36:53.819Z,2.03
2023-11-16T08:39:21.125Z,6.67
2023-11-16T08:41:48.705Z,3.13
2023-11-16T08:44:19.740Z,5.03
2023-11-16T08:46:53.422Z,2.00
2023-11-16T08:49:20.700Z,1.87
2023-11-16T08:51:49.021Z,2.40
2023-11-16T08:54:17.363Z,1.70
2023-11-16T08:56:47.312Z,1.97
2023-11-16T08:59:15.633Z,1.70
2023-11-16T09:01:44.620Z,1.37
2023-11-16T09:04:14.828Z,1.63
2023-11-16T09:06:44.594Z,1.87
2023-11-16T09:09:31.916Z,2.87
2023-11-16T09:11:59.544Z,2.27
2023-11-16T09:14:28.129Z,1.50
2023-11-16T09:17:12.335Z,1.87
2023-11-16T09:19:40.873Z,1.50
2023-11-16T09:22:10.677Z,1.97
2023-11-16T09:24:38.390Z,2.20
2023-11-16T09:27:05.879Z,1.77
2023-11-16T09:29:34.358Z,2.40
2023-11-16T09:32:01.158Z,1.50
2023-11-16T09:34:28.424Z,2.40
2023-11-16T09:36:55.511Z,2.20
2023-11-16T09:39:23.589Z,2.00
2023-11-16T09:41:51.185Z,2.23
2023-11-16T09:44:20.004Z,2.20
2023-11-16T09:46:48.156Z,1.70
2023-11-16T09:49:19.819Z,2.10
2023-11-16T09:51:47.434Z,1.73
2023-11-16T09:54:15.506Z,1.63
2023-11-16T09:56:48.295Z,1.60
2023-11-16T09:59:19.055Z,1.50
2023-11-16T10:01:54.659Z,1.60
2023-11-16T10:04:21.867Z,1.40
2023-11-16T10:06:52.120Z,1.43
2023-11-16T10:09:19.233Z,1.33
2023-11-16T10:11:46.454Z,1.27
2023-11-16T10:14:13.662Z,1.30
2023-11-16T10:16:40.684Z,1.47
2023-11-16T10:19:11.949Z,1.80
2023-11-16T10:21:44.557Z,1.30
2023-11-16T10:24:11.753Z,1.43
2023-11-16T10:26:40.765Z,1.40
2023-11-16T10:29:08.084Z,1.30
2023-11-16T10:31:35.869Z,1.63
2023-11-16T10:34:06.139Z,1.27
2023-11-16T10:36:33.761Z,1.30
2023-11-16T10:39:02.868Z,1.40
2023-11-16T10:41:30.871Z,1.20
2023-11-16T10:44:00.412Z,1.27
2023-11-16T10:46:31.361Z,1.47
2023-11-16T10:48:58.697Z,1.40
2023-11-16T10:51:28.902Z,1.57
2023-11-16T10:53:58.547Z,1.50
2023-11-16T10:56:27.274Z,1.40
2023-11-16T10:58:55.220Z,1.40
2023-11-16T11:01:22.975Z,1.10
2023-11-16T11:03:52.296Z,1.37
2023-11-16T11:06:22.986Z,1.07
2023-11-16T11:08:54.309Z,1.37
2023-11-16T11:11:29.219Z,1.60
2023-11-16T11:13:58.894Z,1.40
2023-11-16T11:16:30.792Z,1.30
2023-11-16T11:18:59.578Z,1.23
2023-11-16T11:21:32.381Z,1.20
2023-11-16T11:24:07.967Z,1.10
2023-11-16T11:26:44.976Z,1.10
2023-11-16T11:29:13.805Z,1.10
2023-11-16T11:32:07.310Z,1.20
2023-11-16T11:34:38.173Z,1.40
2023-11-16T11:37:08.991Z,1.50
2023-11-16T11:39:41.934Z,1.30
2023-11-16T11:42:10.843Z,1.50
2023-11-16T11:44:37.687Z,1.30
2023-11-16T11:47:05.347Z,1.53
2023-11-16T11:49:32.258Z,1.40
2023-11-16T11:52:01.182Z,1.30
2023-11-16T11:54:38.486Z,1.60
2023-11-16T11:57:06.615Z,1.60
2023-11-16T11:59:36.270Z,1.40
2023-11-16T12:02:10.617Z,1.23
2023-11-16T12:04:38.986Z,1.30
2023-11-16T12:07:09.242Z,1.70
2023-11-16T12:09:40.550Z,1.30
2023-11-16T12:12:08.475Z,1.40
2023-11-16T12:14:48.505Z,1.53
2023-11-16T12:17:20.272Z,1.37
2023-11-16T12:19:50.133Z,1.50
2023-11-16T12:22:19.095Z,1.63
2023-11-16T12:24:49.649Z,1.60
2023-11-16T12:27:18.132Z,1.70
2023-11-16T12:29:59.877Z,1.77
2023-11-16T12:32:27.391Z,1.90
2023-11-16T12:34:55.521Z,1.60
2023-11-16T12:37:23.471Z,1.63
2023-11-16T12:39:51.998Z,1.57
2023-11-16T12:42:24.036Z,1.40
2023-11-16T12:44:51.905Z,1.40
2023-11-16T12:47:22.495Z,1.20
2023-11-16T12:49:53.634Z,1.70
2023-11-16T12:52:21.736Z,1.77
2023-11-16T12:54:48.633Z,1.70
2023-11-16T12:57:15.556Z,1.80
2023-11-16T12:59:42.390Z,1.60
2023-11-16T13:02:11.665Z,1.50
2023-11-16T13:04:39.840Z,1.50
2023-11-16T13:07:06.954Z,1.50
2023-11-16T13:09:33.923Z,1.40
2023-11-16T13:12:08.388Z,1.73
2023-11-16T13:14:43.821Z,1.43
2023-11-16T13:17:11.061Z,1.50
2023-11-16T13:19:38.311Z,2.00
2023-11-16T13:22:06.405Z,1.87
2023-11-16T13:24:33.862Z,1.20
2023-11-16T13:27:00.793Z,1.40
2023-11-16T13:29:28.049Z,2.03
2023-11-16T13:31:55.156Z,1.60
2023-11-16T13:34:22.295Z,1.60
2023-11-16T13:36:49.120Z,1.20
2023-11-16T13:39:17.126Z,2.37
2023-11-16T13:41:48.641Z,3.00
2023-11-16T13:44:15.807Z,2.13
2023-11-16T13:46:42.689Z,2.53
2023-11-16T13:49:09.741Z,3.47
2023-11-16T13:51:38.177Z,4.50
2023-11-16T13:54:05.131Z,3.67
2023-11-16T13:56:34.911Z,3.23
2023-11-16T13:59:01.932Z,3.60
2023-11-16T14:01:31.005Z,3.70
2023-11-16T14:03:58.338Z,4.07
2023-11-16T14:06:25.597Z,3.17
2023-11-16T14:08:53.262Z,2.73
2023-11-16T14:11:21.719Z,3.77
2023-11-16T14:13:48.559Z,1.83
2023-11-16T14:16:16.267Z,1.87
2023-11-16T14:18:43.506Z,2.00
2023-11-16T14:21:10.437Z,1.93
2023-11-16T14:23:41.337Z,1.70
2023-11-16T14:26:10.553Z,2.07
2023-11-16T14:28:37.451Z,2.20
2023-11-16T14:31:04.871Z,2.10
2023-11-16T14:33:32.289Z,2.03
2023-11-16T14:35:59.323Z,20.30
2023-11-16T14:38:26.216Z,9.07
2023-11-16T14:40:53.048Z,9.00
2023-11-16T14:43:20.770Z,7.87
2023-11-16T14:45:48.901Z,6.80
2023-11-16T14:48:16.431Z,3.80
2023-11-16T14:50:44.098Z,2.60
2023-11-16T14:53:13.023Z,1.70
2023-11-16T14:55:42.307Z,1.30
2023-11-16T14:58:09.239Z,1.40
2023-11-16T15:00:36.241Z,1.50
2023-11-16T15:03:04.161Z,1.30
2023-11-16T15:05:37.084Z,1.30
2023-11-16T15:08:05.874Z,1.30
2023-11-16T15:10:32.769Z,1.23
2023-11-16T15:12:59.648Z,1.30
2023-11-16T15:15:26.577Z,1.57
2023-11-16T15:17:53.536Z,2.30
2023-11-16T15:20:26.598Z,2.40
2023-11-16T15:22:56.935Z,2.37
2023-11-16T15:25:23.937Z,1.80
2023-11-16T15:27:51.282Z,1.20
2023-11-16T15:30:18.373Z,1.77
2023-11-16T15:32:45.250Z,2.73
2023-11-16T15:35:12.968Z,1.87
2023-11-16T15:37:39.798Z,1.47
2023-11-16T15:40:07.622Z,1.77
2023-11-16T15:42:34.653Z,1.33
2023-11-16T15:45:02.163Z,1.40
2023-11-16T15:47:29.147Z,1.30
2023-11-16T15:49:55.924Z,1.90
2023-11-16T15:52:24.331Z,1.50
2023-11-16T15:54:54.356Z,1.53
2023-11-16T15:57:24.720Z,1.53
2023-11-16T15:59:56.005Z,1.47
2023-11-16T16:02:22.975Z,1.40
2023-11-16T16:04:50.718Z,1.47
2023-11-16T16:07:17.530Z,1.50
2023-11-16T16:09:49.974Z,1.80
2023-11-16T16:12:17.095Z,1.63
2023-11-16T16:14:44.780Z,1.63
2023-11-16T16:17:11.555Z,1.70
2023-11-16T16:19:38.522Z,1.60
2023-11-16T16:22:05.564Z,1.60
2023-11-16T16:24:34.555Z,1.60
2023-11-16T16:27:09.118Z,1.77
2023-11-16T16:29:37.604Z,1.87
2023-11-16T16:32:11.627Z,2.53
2023-11-16T16:34:38.520Z,2.47
2023-11-16T16:37:05.423Z,1.80
2023-11-16T16:39:36.460Z,2.10
2023-11-16T16:42:03.724Z,1.90
2023-11-16T16:44:32.063Z,2.03
2023-11-16T16:46:59.155Z,3.97
2023-11-16T16:49:29.106Z,3.97
2023-11-16T16:51:59.245Z,2.80
2023-11-16T16:54:26.263Z,1.97
2023-11-16T16:56:53.426Z,1.80
2023-11-16T16:59:20.227Z,2.03
2023-11-16T17:01:47.127Z,1.77
2023-11-16T17:04:14.057Z,1.60
2023-11-16T17:06:41.216Z,1.90
2023-11-16T17:09:09.555Z,1.70
2023-11-16T17:11:36.718Z,1.60
2023-11-16T17:14:03.814Z,2.27
2023-11-16T17:16:31.170Z,2.17
2023-11-16T17:18:58.167Z,1.70
2023-11-16T17:21:25.796Z,1.83
2023-11-16T17:23:52.877Z,1.50
2023-11-16T17:26:20.741Z,1.70
2023-11-16T17:28:49.847Z,1.57
2023-11-16T17:31:18.734Z,1.60
2023-11-16T17:33:46.352Z,1.83
2023-11-16T17:36:13.436Z,1.60
2023-11-16T17:38:40.256Z,1.67
2023-11-16T17:41:07.359Z,1.50
2023-11-16T17:43:39.972Z,1.70
2023-11-16T17:46:08.351Z,1.70
2023-11-16T17:48:35.549Z,1.57
2023-11-16T17:51:03.889Z,1.77
2023-11-16T17:53:30.809Z,1.70
2023-11-16T17:55:58.108Z,1.60
2023-11-16T17:58:25.782Z,1.83
2023-11-16T18:00:53.896Z,1.77
2023-11-16T18:03:20.904Z,1.70
2023-11-16T18:05:48.125Z,1.83
2023-11-16T18:08:14.968Z,2.07
2023-11-16T18:10:49.924Z,1.53
2023-11-16T18:13:18.177Z,1.63
2023-11-16T18:15:45.644Z,1.70
2023-11-16T18:18:12.891Z,1.60
2023-11-16T18:20:41.262Z,1.73
2023-11-16T18:23:09.663Z,1.77
2023-11-16T18:25:41.671Z,1.73
2023-11-16T18:28:14.211Z,1.90
2023-11-16T18:30:47.603Z,2.27
2023-11-16T18:33:17.120Z,2.10
2023-11-16T18:35:51.855Z,2.40
2023-11-16T18:38:18.745Z,3.53
2023-11-16T18:40:45.754Z,2.57
2023-11-16T18:43:15.476Z,2.63
2023-11-16T18:45:43.555Z,2.67
2023-11-16T18:48:10.792Z,2.57
2023-11-16T18:50:41.326Z,2.30
2023-11-16T18:53:13.091Z,2.10
2023-11-16T18:55:41.035Z,2.27
2023-11-16T18:58:08.407Z,2.13
2023-11-16T19:00:36.774Z,2.67
2023-11-16T19:03:16.086Z,2.20
2023-11-16T19:05:44.800Z,4.00
2023-11-16T19:08:14.328Z,4.07
2023-11-16T19:10:42.878Z,2.40
2023-11-16T19:13:10.664Z,2.60
2023-11-16T19:15:38.091Z,4.63
2023-11-16T19:18:06.286Z,3.83
2023-11-16T19:20:36.498Z,4.23
2023-11-16T19:23:04.754Z,3.17
2023-11-16T19:25:36.774Z,3.13
2023-11-16T19:28:04.243Z,2.73
2023-11-16T19:30:31.785Z,25.00
2023-11-16T19:32:59.040Z,14.10
2023-11-16T19:35:26.009Z,13.97
2023-11-16T19:37:54.173Z,5.50
2023-11-16T19:40:30.750Z,2.17
2023-11-16T19:43:06.945Z,2.10
2023-11-16T19:45:35.419Z,1.90
2023-11-16T19:48:02.210Z,2.13
2023-11-16T19:50:29.141Z,1.70
2023-11-16T19:52:56.440Z,1.90
2023-11-16T19:55:23.309Z,1.90
2023-11-16T19:57:52.943Z,1.73
2023-11-16T20:00:23.930Z,1.43
2023-11-16T20:02:52.106Z,1.43
2023-11-16T20:05:19.345Z,1.27
2023-11-16T20:07:46.847Z,1.70
2023-11-16T20:10:17.000Z,1.57
2023-11-16T20:12:44.173Z,1.60
2023-11-16T20:15:14.071Z,1.43
2023-11-16T20:17:46.269Z,1.40
2023-11-16T20:20:16.696Z,1.27
2023-11-16T20:22:47.256Z,1.40
2023-11-16T20:25:18.984Z,1.40
2023-11-16T20:27:47.740Z,1.97
2023-11-16T20:30:16.646Z,1.50
2023-11-16T20:32:45.926Z,1.60
2023-11-16T20:35:13.944Z,1.50
2023-11-16T20:37:44.429Z,1.40
2023-11-16T20:40:17.875Z,1.10
2023-11-16T20:42:46.528Z,1.40
2023-11-16T20:45:16.941Z,1.70
2023-11-16T20:47:45.000Z,1.30
2023-11-16T20:50:13.133Z,1.03
2023-11-16T20:52:40.170Z,1.40
2023-11-16T20:55:08.845Z,1.60
2023-11-16T20:57:36.292Z,1.10
2023-11-16T21:00:05.876Z,1.23
2023-11-16T21:02:32.962Z,1.20
2023-11-16T21:05:00.390Z,1.10
2023-11-16T21:07:27.344Z,1.30
2023-11-16T21:09:54.272Z,1.80
2023-11-16T21:12:21.261Z,1.77
2023-11-16T21:14:47.989Z,1.30
2023-11-16T21:17:17.072Z,1.87
2023-11-16T21:19:43.986Z,1.60
2023-11-16T21:22:11.299Z,1.60
2023-11-16T21:24:42.096Z,1.20
2023-11-16T21:27:13.176Z,0.93
2023-11-16T21:29:44.137Z,1.57
2023-11-16T21:32:11.905Z,1.10
2023-11-16T21:34:41.493Z,1.10
2023-11-16T21:37:10.154Z,1.20
2023-11-16T21:39:37.908Z,1.00
2023-11-16T21:42:06.079Z,1.10
2023-11-16T21:44:33.030Z,1.20
2023-11-16T21:47:01.107Z,1.00
2023-11-16T21:49:29.006Z,0.90
2023-11-16T21:51:56.661Z,1.13
2023-11-16T21:54:23.681Z,0.97
2023-11-16T21:56:50.612Z,1.00
2023-11-16T21:59:18.775Z,1.10
2023-11-16T22:01:47.557Z,1.20
2023-11-16T22:04:14.744Z,0.90
2023-11-16T22:06:42.584Z,1.10
2023-11-16T22:09:09.652Z,1.20
2023-11-16T22:11:36.924Z,0.90
2023-11-16T22:14:08.701Z,1.10
2023-11-16T22:16:36.555Z,1.10
2023-11-16T22:19:04.687Z,1.27
2023-11-16T22:21:34.467Z,0.90
2023-11-16T22:24:01.649Z,1.23
2023-11-16T22:26:30.543Z,1.10
2023-11-16T22:28:57.818Z,1.10
2023-11-16T22:31:24.858Z,0.90
2023-11-16T22:33:53.882Z,1.13
2023-11-16T22:36:20.940Z,0.80
2023-11-16T22:38:49.145Z,0.90
2023-11-16T22:41:16.991Z,0.90
2023-11-16T22:43:43.858Z,1.00
2023-11-16T22:46:11.108Z,0.90
2023-11-16T22:48:38.236Z,1.20
2023-11-16T22:51:07.913Z,0.80
2023-11-16T22:53:36.550Z,0.90
2023-11-16T22:56:05.194Z,1.10
2023-11-16T22:58:33.923Z,1.20
2023-11-16T23:01:03.207Z,0.90
2023-11-16T23:03:30.542Z,1.13
2023-11-16T23:05:58.135Z,1.10
2023-11-16T23:08:25.061Z,0.83
2023-11-16T23:10:53.658Z,1.00
2023-11-16T23:13:21.363Z,0.90
2023-11-16T23:15:48.637Z,1.10
2023-11-16T23:18:15.673Z,1.03
2023-11-16T23:20:43.029Z,1.60
2023-11-16T23:23:10.498Z,1.20
2023-11-16T23:25:42.640Z,0.90
2023-11-16T23:28:12.155Z,0.93
2023-11-16T23:30:41.070Z,1.20
2023-11-16T23:33:09.910Z,1.13
2023-11-16T23:35:37.470Z,1.00
2023-11-16T23:38:05.190Z,1.20
2023-11-16T23:40:32.430Z,0.97
2023-11-16T23:42:59.793Z,1.10
2023-11-16T23:45:26.841Z,1.17
2023-11-16T23:47:55.319Z,0.90
2023-11-16T23:50:22.307Z,1.00
2023-11-16T23:52:49.074Z,0.90
2023-11-16T23:55:16.021Z,1.10
2023-11-16T23:57:43.246Z,1.00
